Latest Weather Observations for Clare

IDS60801

Issued at 7:21 pm CDT Sunday 29 March 2020 (issued every 10 minutes, with the page automatically refreshed every 10 minutes)

About weather observations | Map of weather stations | Latest weather observations for SA | Other Formats
Station Details ID: 021131 Name: CLARE HIGH SCHOOL Lat: -33.82 Lon: 138.59 Height: 395.0 m
Data from the previous 72 hours. | See also: Recent months at Clare
Date/Time
CDT
Temp
°C
App
Temp
°C
Dew
Point
°C
Rel
Hum
%
Delta-T
°C
Wind Press
QNH
hPa
Press
MSL
hPa
Rain since
9am
mm
Dir  Spd
km/h
Gust
km/h
Spd
kts
Gust
kts
29/07:00pm 18.9 17.4 10.5 58 4.6 SSW 9 17 5 9 1013.1 1011.7 0.8
29/06:30pm 19.5 17.3 10.8 57 4.8 SSW 13 20 7 11 1012.7 1011.3 0.8
29/06:00pm 20.2 17.9 10.6 54 5.3 SSW 13 20 7 11 1012.3 1011.0 0.8
29/05:30pm 20.8 19.0 10.9 53 5.5 SW 11 20 6 11 1012.1 1010.8 0.8
29/05:00pm 21.3 19.5 12.2 56 5.2 SW 13 20 7 11 1011.8 1010.5 0.8
29/04:30pm 21.6 19.7 13.0 58 5.0 SW 15 24 8 13 1011.6 1010.3 0.8
29/04:00pm 22.0 20.0 13.9 60 4.8 SW 17 30 9 16 1011.4 1010.1 0.8
29/03:30pm 23.7 21.7 12.7 50 6.4 WSW 15 26 8 14 1011.2 1009.9 0.8
29/03:00pm 22.9 20.2 12.8 53 5.9 WSW 19 28 10 15 1011.2 1009.9 0.8
29/02:30pm 22.8 20.7 13.6 56 5.4 WSW 17 30 9 16 1011.1 1009.8 0.8
29/02:00pm 23.3 21.5 13.2 53 5.9 WSW 15 24 8 13 1011.4 1010.1 0.8
29/01:30pm 24.4 21.8 12.0 46 7.2 WSW 17 28 9 15 1011.3 1010.0 0.8
29/01:00pm 24.9 20.1 7.5 33 9.3 W 22 33 12 18 1011.4 1010.1 0.8
29/12:30pm 23.8 19.3 7.0 34 8.9 WNW 20 32 11 17 1011.7 1010.4 0.8
29/12:00pm 22.1 18.9 8.6 42 7.3 NNW 15 20 8 11 1011.8 1010.5 0.6
29/11:30am 19.8 18.8 8.8 49 5.9 SW 4 13 2 7 1011.9 1010.6 0.6
29/11:00am 18.0 16.4 8.6 54 5.0 NNW 7 11 4 6 1012.3 1011.0 0.6
29/10:30am 18.4 16.9 8.4 52 5.3 NNW 6 9 3 5 1013.0 1011.6 0.0
29/10:00am 21.1 19.1 2.4 29 8.9 NW 2 11 1 6 1013.4 1012.1 0.0
29/09:30am 22.3 17.3 1.3 25 9.9 W 17 28 9 15 1013.9 1012.6 0.0
29/09:00am 21.2 17.8 2.0 28 9.1 WNW 9 17 5 9 1013.0 1011.6 0.0
29/08:30am 20.2 16.1 2.5 31 8.4 WNW 13 17 7 9 1012.7 1011.3 0.0
29/08:00am 19.8 16.8 3.9 35 7.7 WNW 9 17 5 9 1012.2 1010.9 0.0
29/07:30am 21.6 17.1 4.2 32 8.6 WNW 17 28 9 15 1012.0 1010.7 0.0
29/07:00am 19.0 17.5 5.1 40 6.9 NW 2 7 1 4 1011.4 1010.1 0.0
29/06:30am 19.4 17.7 4.0 36 7.5 NNE 2 6 1 3 1010.6 1009.2 0.0
29/06:00am 19.4 16.8 3.2 34 7.8 NW 6 13 3 7 1010.1 1008.7 0.0
29/05:30am 18.9 16.1 1.9 32 7.9 NNW 6 9 3 5 1009.5 1008.2 0.0
29/05:00am 18.4 15.2 -0.4 28 8.3 NW 6 9 3 5 1009.4 1008.1 0.0
29/04:30am 18.9 15.6 -1.0 26 8.7 N 6 11 3 6 1009.4 1008.1 0.0
29/04:00am 18.5 14.8 -3.0 23 9.0 N 7 15 4 8 1009.6 1008.3 0.0
29/03:30am 17.4 14.2 -3.4 24 8.6 NNW 4 9 2 5 1009.9 1008.5 0.0
29/03:00am 16.3 12.7 -3.7 25 8.1 WNW 6 9 3 5 1010.4 1009.0 0.0
29/02:30am 15.9 13.0 -4.1 25 8.0 NW 2 6 1 3 1010.6 1009.2 0.0
29/02:00am 14.7 12.3 -3.1 29 7.2 CALM 0 0 0 0 1010.8 1009.4 0.0
29/01:30am 15.3 13.0 -2.6 29 7.3 CALM 0 0 0 0 1011.2 1009.9 0.0
29/01:00am 14.5 11.5 -2.0 32 6.8 NNW 4 7 2 4 1011.5 1010.2 0.0
29/12:30am 12.9 11.0 0.3 42 5.4 CALM 0 0 0 0 1012.0 1010.7 0.0
29/12:00am 13.0 11.1 0.4 42 5.4 CALM 0 0 0 0 1012.5 1011.1 0.0
 
Date/Time
CDT
Temp
°C
App
Temp
°C
Dew
Point
°C
Rel
Hum
%
Delta-T
°C
Wind Press
QNH
hPa
Press
MSL
hPa
Rain since
9am
mm
Dir  Spd
km/h
Gust
km/h
Spd
kts
Gust
kts
28/11:30pm 13.0 11.2 1.0 44 5.2 CALM 0 0 0 0 1012.9 1011.5 0.0
28/11:00pm 13.3 11.5 1.0 43 5.3 CALM 0 0 0 0 1013.4 1012.1 0.0
28/10:30pm 14.5 12.5 -0.4 36 6.4 CALM 0 0 0 0 1013.5 1012.2 0.0
28/10:00pm 15.3 12.3 0.7 37 6.4 E 6 7 3 4 1013.5 1012.2 0.0
28/09:30pm 15.8 13.8 0.0 34 6.9 CALM 0 0 0 0 1013.8 1012.5 0.0
28/09:00pm 17.3 15.1 -1.9 27 8.1 CALM 0 0 0 0 1013.9 1012.6 0.0
28/08:30pm 18.5 16.2 -2.4 24 8.9 CALM 0 0 0 0 1013.6 1012.3 0.0
28/08:00pm 20.3 18.0 -2.1 22 9.7 CALM 0 0 0 0 1013.5 1012.2 0.0
28/07:30pm 22.1 19.7 -3.3 18 10.9 CALM 0 2 0 1 1013.3 1012.0 0.0
28/07:00pm 24.3 20.4 -4.9 14 12.4 W 7 9 4 5 1013.2 1011.8 0.0
28/06:30pm 26.7 21.5 -6.2 11 14.0 WNW 13 19 7 10 1013.3 1012.0 0.0
28/06:00pm 28.2 23.0 -6.3 10 14.8 WNW 13 20 7 11 1013.1 1011.7 0.0
28/05:30pm 28.8 24.0 -5.8 10 15.1 W 11 19 6 10 1013.2 1011.8 0.0
28/05:00pm 28.5 22.9 -6.0 10 14.9 NW 15 22 8 12 1013.1 1011.7 0.0
28/04:30pm 28.8 23.1 -7.2 9 15.3 NNW 15 24 8 13 1013.4 1012.1 0.0
28/04:00pm 28.7 22.8 -5.9 10 15.0 NNW 17 24 9 13 1013.7 1012.4 0.0
28/03:30pm 28.9 23.5 -4.5 11 14.9 W 15 32 8 17 1014.0 1012.7 0.0
28/03:00pm 29.0 22.8 -4.4 11 14.9 NNW 19 30 10 16 1014.3 1013.0 0.0
28/02:30pm 28.4 22.3 -3.7 12 14.5 NW 19 30 10 16 1014.7 1013.4 0.0
28/02:00pm 28.8 23.8 -4.6 11 14.9 NNW 13 20 7 11 1015.2 1013.8 0.0
28/01:30pm 27.8 22.4 -1.2 15 13.6 NW 17 26 9 14 1015.9 1014.6 0.0
28/01:00pm 27.9 22.5 -1.1 15 13.6 NW 17 30 9 16 1016.3 1015.0 0.0
28/12:30pm 27.2 21.5 -0.8 16 13.2 NNW 19 30 10 16 1016.6 1015.3 0.0
28/12:00pm 26.2 21.1 4.1 24 11.3 NNW 20 37 11 20 1017.0 1015.7 0.0
28/11:30am 25.6 20.6 4.7 26 10.7 NNW 20 33 11 18 1017.5 1016.2 0.0
28/11:00am 25.2 21.0 5.9 29 10.1 N 17 32 9 17 1017.8 1016.5 0.0
28/10:30am 25.4 22.0 6.1 29 10.1 N 13 24 7 13 1017.8 1016.5 0.0
28/10:00am 23.3 20.3 4.3 29 9.5 N 9 13 5 7 1018.1 1016.8 0.0
28/09:30am 20.8 18.7 4.0 33 8.2 N 4 6 2 3 1018.1 1016.8 0.0
28/09:00am 17.4 16.3 5.0 44 6.0 CALM 0 0 0 0 1018.2 1016.9 0.0
28/08:30am 14.1 12.9 4.7 53 4.4 CALM 0 0 0 0 1018.1 1016.8 0.0
28/08:00am 10.1 8.8 4.0 66 2.8 CALM 0 0 0 0 1018.0 1016.7 0.0
28/07:30am 8.6 7.1 3.2 69 2.4 CALM 0 0 0 0 1017.5 1016.2 0.0
28/07:00am 8.1 6.7 3.4 72 2.1 CALM 0 0 0 0 1017.6 1016.3 0.0
28/06:30am 7.8 6.4 3.3 73 2.0 CALM 0 0 0 0 1017.6 1016.3 0.0
28/06:00am 8.1 6.6 3.0 70 2.2 CALM 0 0 0 0 1017.5 1016.2 0.0
28/05:30am 8.3 6.8 3.0 69 2.3 CALM 0 0 0 0 1017.6 1016.3 0.0
28/05:00am 8.1 6.6 2.8 69 2.3 CALM 0 0 0 0 1017.8 1016.5 0.0
28/04:30am 8.0 6.4 2.3 67 2.4 CALM 0 0 0 0 1017.6 1016.3 0.0
28/04:00am 8.1 6.5 2.4 67 2.4 CALM 0 0 0 0 1017.9 1016.6 0.0
28/03:30am 8.1 6.4 2.1 66 2.5 CALM 0 0 0 0 1018.1 1016.8 0.0
28/03:00am 8.9 7.3 2.5 64 2.8 CALM 0 0 0 0 1018.5 1017.2 0.0
28/02:30am 8.7 7.1 2.3 64 2.7 CALM 0 0 0 0 1018.6 1017.3 0.0
28/02:00am 9.1 7.5 2.2 62 3.0 CALM 0 0 0 0 1018.9 1017.6 0.0
28/01:30am 9.4 7.7 1.8 59 3.2 CALM 0 0 0 0 1019.0 1017.7 0.0
28/01:00am 9.7 8.1 2.3 60 3.2 CALM 0 0 0 0 1019.3 1018.0 0.0
28/12:30am 11.0 9.2 1.5 52 4.1 CALM 0 0 0 0 1019.6 1018.3 0.0
28/12:00am 12.0 10.2 1.1 47 4.7 CALM 0 0 0 0 1019.6 1018.3 0.0
 
Date/Time
CDT
Temp
°C
App
Temp
°C
Dew
Point
°C
Rel
Hum
%
Delta-T
°C
Wind Press
QNH
hPa
Press
MSL
hPa
Rain since
9am
mm
Dir  Spd
km/h
Gust
km/h
Spd
kts
Gust
kts
27/11:30pm 13.0 11.1 0.7 43 5.3 CALM 0 0 0 0 1019.8 1018.5 0.0
27/11:00pm 13.7 11.8 0.4 40 5.7 CALM 0 0 0 0 1019.9 1018.7 0.0
27/10:30pm 14.5 11.8 0.4 38 6.1 ESE 4 6 2 3 1019.9 1018.7 0.0
27/10:00pm 15.5 12.7 -0.3 34 6.8 ESE 4 7 2 4 1019.9 1018.7 0.0
27/09:30pm 16.5 13.8 0.2 33 7.1 SSE 4 7 2 4 1019.8 1018.5 0.0
27/09:00pm 18.0 14.7 -1.3 27 8.3 SE 6 7 3 4 1019.7 1018.4 0.0
27/08:30pm 18.6 15.7 -1.3 26 8.6 ESE 4 7 2 4 1019.5 1018.2 0.0
27/08:00pm 19.5 16.2 -1.0 25 9.0 ESE 6 7 3 4 1019.3 1018.0 0.0
27/07:30pm 20.3 17.9 -0.3 25 9.2 ENE 2 6 1 3 1019.1 1017.8 0.0
27/07:00pm 23.4 20.1 -1.5 19 11.2 NNE 6 11 3 6 1019.0 1017.7 0.0
27/06:30pm 24.7 20.5 -3.6 15 12.4 NE 9 15 5 8 1018.9 1017.6 0.0
27/06:00pm 25.4 21.3 -3.1 15 12.6 NE 9 15 5 8 1018.8 1017.5 0.0
27/05:30pm 26.2 22.6 -3.4 14 13.1 NNE 6 11 3 6 1018.9 1017.6 0.0
27/05:00pm 26.4 22.8 -2.3 15 13.1 NE 7 11 4 6 1019.0 1017.7 0.0
27/04:30pm 26.4 22.2 -4.2 13 13.4 N 9 15 5 8 1019.1 1017.8 0.0
27/04:00pm 25.8 22.0 -3.7 14 13.0 NE 7 15 4 8 1019.5 1018.2 0.0
27/03:30pm 25.5 21.7 -3.9 14 12.9 ESE 7 11 4 6 1019.8 1018.5 0.0
27/03:00pm 26.3 22.3 -2.4 15 13.0 SE 9 19 5 10 1020.0 1018.8 0.0
27/02:30pm 25.9 22.0 -1.8 16 12.6 E 9 15 5 8 1020.3 1019.1 0.0
27/02:00pm 25.5 22.0 -1.3 17 12.3 NE 7 17 4 9 1020.9 1019.6 0.0
27/01:30pm 24.1 20.7 -0.9 19 11.4 ESE 7 15 4 8 1021.1 1019.8 0.0
27/01:00pm 24.5 20.5 0.8 21 11.2 ENE 11 19 6 10 1021.5 1020.2 0.0
27/12:30pm 23.5 20.3 0.6 22 10.7 SSE 7 17 4 9 1022.0 1020.7 0.0
27/12:00pm 23.0 19.4 0.8 23 10.4 E 9 13 5 7 1022.5 1021.3 0.0
27/11:30am 22.9 19.5 1.9 25 10.0 E 9 19 5 10 1022.8 1021.6 0.0
27/11:00am 22.4 19.2 3.0 28 9.5 ENE 9 15 5 8 1022.9 1021.7 0.0
27/10:30am 21.3 18.3 4.0 32 8.5 NNE 9 13 5 7 1023.0 1021.8 0.0
27/10:00am 20.4 17.7 3.6 33 8.2 NNE 7 13 4 7 1023.2 1021.9 0.0
27/09:30am 17.9 15.7 5.2 43 6.2 ENE 6 7 3 4 1023.2 1021.9 0.0
27/09:00am 15.1 14.5 7.6 61 3.8 CALM 0 0 0 0 1023.3 1022.0 0.0
27/08:30am 10.8 10.0 6.4 74 2.1 CALM 0 0 0 0 1023.0 1021.8 0.0
27/08:00am 7.2 6.1 5.3 88 0.9 CALM 0 0 0 0 1022.8 1021.6 0.0
27/07:30am 6.8 5.7 5.0 88 0.8 CALM 0 0 0 0 1022.5 1021.3 0.0
27/07:00am 7.1 6.0 4.9 86 1.0 CALM 0 0 0 0 1022.3 1021.1 0.0
27/06:30am 7.5 6.4 5.1 85 1.1 CALM 0 0 0 0 1022.1 1020.9 0.0
27/06:00am 7.8 6.7 5.1 83 1.2 CALM 0 0 0 0 1022.0 1020.7 0.0
27/05:30am 8.5 7.4 5.3 80 1.5 CALM 0 0 0 0 1021.9 1020.6 0.0
27/05:00am 8.7 7.2 4.9 77 1.7 ESE 2 6 1 3 1021.9 1020.6 0.0
27/04:30am 10.6 9.6 5.4 70 2.4 CALM 0 0 0 0 1021.8 1020.5 0.0
27/04:00am 9.6 7.4 5.2 74 2.0 E 6 7 3 4 1021.8 1020.5 0.0
27/03:30am 8.9 6.6 4.9 76 1.8 NE 6 6 3 3 1022.2 1021.0 0.0
27/03:00am 9.7 7.4 4.7 71 2.3 ENE 6 7 3 4 1022.4 1021.2 0.0
27/02:30am 9.5 7.1 4.3 70 2.3 NE 6 7 3 4 1022.5 1021.3 0.0
27/02:00am 10.7 8.3 4.4 65 2.9 E 6 9 3 5 1022.6 1021.4 0.0
27/01:30am 11.0 9.7 4.2 63 3.1 CALM 0 0 0 0 1022.7 1021.5 0.0
27/01:00am 13.0 10.5 3.7 53 4.3 ENE 6 9 3 5 1022.6 1021.4 0.0
27/12:30am 13.4 10.7 2.9 49 4.7 E 6 9 3 5 1022.5 1021.3 0.0
27/12:00am 12.6 10.4 3.3 53 4.2 ESE 4 6 2 3 1022.5 1021.3 0.0
 
Date/Time
CDT
Temp
°C
App
Temp
°C
Dew
Point
°C
Rel
Hum
%
Delta-T
°C
Wind Press
QNH
hPa
Press
MSL
hPa
Rain since
9am
mm
Dir  Spd
km/h
Gust
km/h
Spd
kts
Gust
kts
26/11:30pm 11.8 10.4 3.6 57 3.7 CALM 0 0 0 0 1022.7 1021.5 0.0
26/11:00pm 14.1 11.9 3.6 49 4.9 ESE 4 6 2 3 1022.8 1021.6 0.0
26/10:30pm 14.4 11.8 3.2 47 5.1 ESE 6 9 3 5 1022.9 1021.7 0.0
26/10:00pm 14.6 12.0 3.4 47 5.2 E 6 9 3 5 1022.9 1021.7 0.0
26/09:30pm 14.0 12.5 3.2 48 4.9 CALM 0 0 0 0 1023.0 1021.8 0.0
26/09:00pm 14.6 12.6 2.5 44 5.5 ENE 2 7 1 4 1022.9 1021.7 0.0
26/08:30pm 15.3 13.6 2.1 41 6.0 CALM 0 0 0 0 1022.8 1021.6 0.0
26/08:00pm 16.5 14.5 2.5 39 6.5 E 2 7 1 4 1022.7 1021.5 0.0
26/07:30pm 19.0 16.0 2.0 32 7.9 ENE 7 9 4 5 1022.7 1021.5 0.0

Other formats

Comma delimited format used in spreadsheet applications
http://www.bom.gov.au/fwo/IDS60801/IDS60801.95667.axf

JavaScript Object Notation format (JSON) in row-major order
http://www.bom.gov.au/fwo/IDS60801/IDS60801.95667.json

Data quality

Most of these data are generated automatically and are frequently updated. Quality checks on data are not normally performed. It is possible for incorrect values to appear. Refer to information at About Latest Weather Observations and please check the disclaimer before using these data.